Time;durP1;ratioP1;P1;durP2;ratioP2;P2;SDS_P1;SDS_P2;PMS_P1;PMS_P2;Temp;Humidity;BMP_temperature;BMP_pressure;BME280_temperature;BME280_humidity;BME280_pressure;Samples;Min_cycle;Max_cycle;Signal;HPM_P1;HPM_P2
2023/06/07 00:01:33;;;;;;;94.35;14.47;;;;;;;16.02;52.14;100487.50;1777177;80;25401;-54
2023/06/07 00:04:02;;;;;;;54.13;11.60;;;;;;;15.92;51.93;100487.41;1777392;80;25401;-54
2023/06/07 00:06:32;;;;;;;33.33;9.88;;;;;;;15.87;52.56;100484.91;1746807;80;25509;-53
2023/06/07 00:08:57;;;;;;;25.23;8.98;;;;;;;15.78;52.73;100482.28;1777115;80;27482;-56
2023/06/07 00:11:23;;;;;;;19.27;9.38;;;;;;;15.71;53.03;100479.27;1777074;79;25461;-53
2023/06/07 00:13:49;;;;;;;15.45;8.60;;;;;;;15.62;53.33;100484.83;1757071;81;25483;-54
2023/06/07 00:16:16;;;;;;;13.95;9.23;;;;;;;15.57;53.34;100482.31;1777130;80;25396;-57
2023/06/07 00:18:42;;;;;;;15.08;8.53;;;;;;;15.53;53.74;100479.23;1777136;80;25477;-54
2023/06/07 00:21:08;;;;;;;14.50;8.63;;;;;;;15.47;54.20;100476.72;1777165;80;27477;-54
2023/06/07 00:23:35;;;;;;;12.47;9.13;;;;;;;15.42;54.28;100472.06;1777053;79;25393;-56
2023/06/07 00:26:02;;;;;;;14.30;8.98;;;;;;;15.37;54.22;100475.79;1757048;81;25413;-56
2023/06/07 00:28:28;;;;;;;18.12;8.70;;;;;;;15.36;54.35;100474.77;1777112;80;25690;-53
2023/06/07 00:30:54;;;;;;;15.08;9.35;;;;;;;15.33;54.81;100475.45;1777171;79;25405;-53
2023/06/07 00:33:21;;;;;;;17.20;8.48;;;;;;;15.26;54.99;100478.16;1777121;80;28034;-55
2023/06/07 00:35:48;;;;;;;14.58;9.15;;;;;;;15.21;54.58;100478.36;1777040;79;25405;-54
2023/06/07 00:38:14;;;;;;;21.40;9.45;;;;;;;15.17;55.07;100476.09;1777037;80;25464;-57
2023/06/07 00:40:41;;;;;;;21.70;10.25;;;;;;;15.13;54.89;100478.66;1756992;81;25430;-57
2023/06/07 00:43:07;;;;;;;13.95;9.10;;;;;;;15.11;55.50;100480.14;1777143;80;25071;-57
2023/06/07 00:45:33;;;;;;;12.13;8.58;;;;;;;15.07;55.73;100478.66;1777133;80;27531;-56
2023/06/07 00:48:02;;;;;;;14.80;8.58;;;;;;;15.01;55.51;100473.75;1756911;81;25457;-57
2023/06/07 00:50:28;;;;;;;10.93;9.17;;;;;;;14.96;56.01;100472.59;1776928;80;25455;-55
2023/06/07 00:52:55;;;;;;;13.60;8.63;;;;;;;14.91;55.96;100466.78;1776552;79;25456;-57
2023/06/07 00:55:21;;;;;;;15.63;8.28;;;;;;;14.87;56.24;100465.86;1776612;80;25384;-58
2023/06/07 00:57:48;;;;;;;14.15;9.23;;;;;;;14.82;56.16;100464.70;1776616;80;27504;-58
2023/06/07 01:00:15;;;;;;;18.45;9.30;;;;;;;14.78;56.01;100461.86;1776533;80;25680;-57
2023/06/07 01:02:45;;;;;;;14.60;9.13;;;;;;;14.74;56.37;100464.45;1776695;80;25437;-57
2023/06/07 01:05:11;;;;;;;17.57;10.20;;;;;;;14.70;56.33;100462.14;1776342;80;25386;-57
2023/06/07 01:07:37;;;;;;;15.68;8.88;;;;;;;14.66;56.83;100451.70;1776719;80;25410;-57
2023/06/07 01:10:06;;;;;;;14.18;8.68;;;;;;;14.64;57.04;100454.51;1776612;80;27554;-53
2023/06/07 01:12:34;;;;;;;12.18;8.15;;;;;;;14.60;57.09;100452.23;1756379;81;25390;-54
2023/06/07 01:15:02;;;;;;;13.13;8.25;;;;;;;14.54;57.21;100454.30;1776552;80;25401;-54
2023/06/07 01:17:30;;;;;;;12.80;9.40;;;;;;;14.47;56.97;100457.58;1756418;81;25410;-55
2023/06/07 01:19:59;;;;;;;10.93;8.80;;;;;;;14.43;57.54;100455.84;1770620;81;25437;-58
2023/06/07 01:22:27;;;;;;;11.30;8.70;;;;;;;14.39;57.53;100459.22;1756619;81;27477;-57
2023/06/07 01:24:55;;;;;;;10.32;8.33;;;;;;;14.36;57.76;100455.00;1756373;81;25390;-56
2023/06/07 01:27:27;;;;;;;10.98;8.48;;;;;;;14.31;57.99;100458.70;1770538;81;25375;-55
2023/06/07 01:29:52;;;;;;;12.65;9.00;;;;;;;14.26;57.66;100452.09;1756279;81;25450;-54
2023/06/07 01:32:19;;;;;;;29.67;26.87;;;;;;;14.22;57.82;100453.08;1776574;80;25390;-56
2023/06/07 01:34:46;;;;;;;83.67;77.95;;;;;;;14.19;57.71;100457.27;1776546;79;27471;-53
2023/06/07 01:37:13;;;;;;;75.65;70.75;;;;;;;14.12;57.97;100445.55;1756381;81;25863;-54
2023/06/07 01:39:42;;;;;;;13.13;8.50;;;;;;;14.11;57.94;100452.09;1789853;80;25361;-57
2023/06/07 01:42:10;;;;;;;70.67;65.62;;;;;;;14.08;57.77;100454.14;1762185;81;25421;-57
2023/06/07 01:44:38;;;;;;;14.13;8.78;;;;;;;14.04;58.10;100453.75;1792675;80;25481;-55
2023/06/07 01:47:06;;;;;;;10.65;8.45;;;;;;;14.01;57.79;100448.39;1762111;81;28036;-56
2023/06/07 01:49:33;;;;;;;13.48;8.73;;;;;;;13.97;58.08;100446.11;1793358;80;25416;-55
2023/06/07 01:51:59;;;;;;;13.30;9.48;;;;;;;13.91;57.86;100450.95;1762091;81;25408;-55
2023/06/07 01:54:25;;;;;;;11.20;9.13;;;;;;;13.90;58.39;100448.55;1793394;80;25683;-54
2023/06/07 01:57:34;;;;;;;7.55;7.25;;;;;;;13.88;58.59;100448.09;1762105;81;25453;-53
2023/06/07 02:00:29;;;;;;;6.70;6.45;;;;;;;;;;1773534;80;27314;-53
2023/06/07 02:03:06;;;;;;;15.13;14.47;;;;;;;;;;1773401;80;25326;-56
2023/06/07 02:05:35;;;;;;;1.85;1.85;;;;;;;;;;1772727;80;25312;-57
2023/06/07 02:08:06;;;;;;;14.70;11.40;;;;;;;;;;1773533;80;25373;-57
2023/06/07 02:10:33;;;;;;;11.38;8.15;;;;;;;;;;1770260;80;25356;-57
2023/06/07 02:13:01;;;;;;;24.15;22.07;;;;;;;;;;1773538;80;27426;-57
2023/06/07 02:15:28;;;;;;;44.73;40.70;;;;;;;;;;1773529;80;25350;-57
2023/06/07 02:17:58;;;;;;;10.80;8.88;;;;;;;;;;1773519;80;25326;-57
2023/06/07 02:20:26;;;;;;;14.05;8.65;;;;;;;;;;1773519;80;25374;-56
2023/06/07 02:22:53;;;;;;;11.03;8.85;;;;;;;;;;1773635;80;25355;-56
2023/06/07 02:25:20;;;;;;;13.65;9.25;;;;;;;;;;1773564;80;27400;-54
2023/06/07 02:27:47;;;;;;;88.20;82.42;;;;;;;;;;1773404;80;25359;-54
2023/06/07 02:32:37;;;;;;;87.17;80.97;;;;;;;13.62;59.61;100452.50;1905453;74;34700;-54
2023/06/07 02:35:07;;;;;;;85.57;79.82;;;;;;;13.55;59.49;100448.68;1789920;80;26617;-54
2023/06/07 02:37:35;;;;;;;82.75;76.75;;;;;;;13.52;59.65;100438.45;1804419;79;27464;-55
2023/06/07 02:40:08;;;;;;;82.37;76.90;;;;;;;13.51;59.79;100438.23;1789981;80;25610;-57
2023/06/07 02:42:38;;;;;;;12.35;9.05;;;;;;;13.51;59.57;100447.74;1804403;79;25515;-56
2023/06/07 02:45:08;;;;;;;13.40;10.50;;;;;;;13.52;59.76;100444.70;1789755;80;25448;-56
2023/06/07 02:47:35;;;;;;;82.22;76.65;;;;;;;13.51;59.75;100446.38;1788132;80;25528;-52
2023/06/07 02:50:06;;;;;;;39.10;36.53;;;;;;;13.40;59.95;100410.60;1804404;79;27360;-53
